createdAt,value
2018-04-14T00:00:16.080Z,18.63
2018-04-14T00:02:43.770Z,20.07
2018-04-14T00:05:11.417Z,18.43
2018-04-14T00:07:39.846Z,16.60
2018-04-14T00:10:07.527Z,16.93
2018-04-14T00:12:35.149Z,17.27
2018-04-14T00:15:02.822Z,18.60
2018-04-14T00:17:30.507Z,16.80
2018-04-14T00:19:58.118Z,19.70
2018-04-14T00:22:25.775Z,19.10
2018-04-14T00:24:53.427Z,19.43
2018-04-14T00:27:21.053Z,21.17
2018-04-14T00:29:48.722Z,20.80
2018-04-14T00:32:17.171Z,20.90
2018-04-14T00:34:45.568Z,20.93
2018-04-14T00:37:13.220Z,20.73
2018-04-14T00:39:41.008Z,19.37
2018-04-14T00:42:08.620Z,20.80
2018-04-14T00:44:36.302Z,18.87
2018-04-14T00:47:03.941Z,20.50
2018-04-14T00:49:31.574Z,20.43
2018-04-14T00:51:59.226Z,22.07
2018-04-14T00:54:26.916Z,22.83
2018-04-14T00:56:54.610Z,22.17
2018-04-14T00:59:22.282Z,22.87
2018-04-14T01:01:49.948Z,23.23
2018-04-14T01:04:17.586Z,22.13
2018-04-14T01:06:45.247Z,21.80
2018-04-14T01:09:12.907Z,22.70
2018-04-14T01:11:40.537Z,24.07
2018-04-14T01:14:08.189Z,24.50
2018-04-14T01:16:35.850Z,26.10
2018-04-14T01:19:03.517Z,26.87
2018-04-14T01:21:31.184Z,27.50
2018-04-14T01:23:58.850Z,27.10
2018-04-14T01:26:26.505Z,26.90
2018-04-14T01:28:54.167Z,25.97
2018-04-14T01:31:21.831Z,27.47
2018-04-14T01:33:49.477Z,27.10
2018-04-14T01:36:17.152Z,29.20
2018-04-14T01:38:44.807Z,27.90
2018-04-14T01:41:12.494Z,26.40
2018-04-14T01:43:40.149Z,28.90
2018-04-14T01:46:07.817Z,27.67
2018-04-14T01:48:35.450Z,28.57
2018-04-14T01:51:03.135Z,27.17
2018-04-14T01:53:30.786Z,26.20
2018-04-14T01:55:58.450Z,26.80
2018-04-14T01:58:26.149Z,26.00
2018-04-14T02:00:53.810Z,26.10
2018-04-14T02:03:22.192Z,26.00
2018-04-14T02:05:49.866Z,24.67
2018-04-14T02:08:17.528Z,24.17
2018-04-14T02:10:45.144Z,25.33
2018-04-14T02:13:12.810Z,24.90
2018-04-14T02:15:41.258Z,22.50
2018-04-14T02:18:08.894Z,23.40
2018-04-14T02:20:36.612Z,23.27
2018-04-14T02:23:05.046Z,22.60
2018-04-14T02:25:32.672Z,19.93
2018-04-14T02:28:00.330Z,22.93
2018-04-14T02:30:27.994Z,21.47
2018-04-14T02:32:55.635Z,22.20
2018-04-14T02:35:24.067Z,20.13
2018-04-14T02:37:51.741Z,19.40
2018-04-14T02:40:19.356Z,19.90
2018-04-14T02:42:47.039Z,20.13
2018-04-14T02:45:14.718Z,20.27
2018-04-14T02:47:42.363Z,19.83
2018-04-14T02:50:10.020Z,19.90
2018-04-14T02:52:37.691Z,19.80
2018-04-14T02:55:05.344Z,19.20
2018-04-14T02:57:33.009Z,17.30
2018-04-14T03:00:00.694Z,17.20
2018-04-14T03:02:28.345Z,17.87
2018-04-14T03:04:56.018Z,18.00
2018-04-14T03:07:23.685Z,16.73
2018-04-14T03:09:52.084Z,14.97
2018-04-14T03:12:19.741Z,14.50
2018-04-14T03:14:47.394Z,15.47
2018-04-14T03:17:15.790Z,14.90
2018-04-14T03:19:43.457Z,15.47
2018-04-14T03:22:11.116Z,14.33
2018-04-14T03:24:38.744Z,14.20
2018-04-14T03:27:07.181Z,14.00
2018-04-14T03:29:34.871Z,13.90
2018-04-14T03:32:02.517Z,13.60
2018-04-14T03:34:30.180Z,13.07
2018-04-14T03:36:57.859Z,11.57
2018-04-14T03:39:26.250Z,10.30
2018-04-14T03:41:54.707Z,9.07
2018-04-14T03:44:22.354Z,9.00
2018-04-14T03:46:49.975Z,7.43
2018-04-14T03:49:17.630Z,8.57
2018-04-14T03:51:45.279Z,7.87
2018-04-14T03:54:13.849Z,8.17
2018-04-14T03:56:42.270Z,8.70
2018-04-14T03:59:09.931Z,8.57
2018-04-14T04:01:37.546Z,7.63
2018-04-14T04:04:05.975Z,8.33
2018-04-14T04:06:33.645Z,7.57
2018-04-14T04:09:01.286Z,8.27
2018-04-14T04:11:28.949Z,8.90
2018-04-14T04:13:56.594Z,7.60
2018-04-14T04:16:24.237Z,8.00
2018-04-14T04:19:03.688Z,8.00
2018-04-14T04:21:43.347Z,7.50
2018-04-14T04:24:22.800Z,7.37
2018-04-14T04:26:51.348Z,7.47
2018-04-14T04:29:19.737Z,7.57
2018-04-14T04:31:47.405Z,7.40
2018-04-14T04:34:15.059Z,8.30
2018-04-14T04:36:42.690Z,8.00
2018-04-14T04:39:10.331Z,7.73
2018-04-14T04:41:38.746Z,8.40
2018-04-14T04:44:06.366Z,8.03
2018-04-14T04:46:34.020Z,7.60
2018-04-14T04:49:02.616Z,9.27
2018-04-14T04:51:30.266Z,8.73
2018-04-14T04:53:58.691Z,8.97
2018-04-14T04:56:26.361Z,9.23
2018-04-14T04:58:53.988Z,8.53
2018-04-14T05:01:21.655Z,8.50
2018-04-14T05:03:49.317Z,8.07
2018-04-14T05:06:16.927Z,9.27
2018-04-14T05:08:44.606Z,8.57
2018-04-14T05:11:13.033Z,8.97
2018-04-14T05:13:40.673Z,8.63
2018-04-14T05:16:08.323Z,8.27
2018-04-14T05:18:35.981Z,9.00
2018-04-14T05:21:03.617Z,9.37
2018-04-14T05:23:31.267Z,8.60
2018-04-14T05:25:58.928Z,8.80
2018-04-14T05:28:26.554Z,9.40
2018-04-14T05:30:54.218Z,9.90
2018-04-14T05:33:21.891Z,8.90
2018-04-14T05:35:49.550Z,10.20
2018-04-14T05:38:17.219Z,9.90
2018-04-14T05:40:44.874Z,8.40
2018-04-14T05:43:12.493Z,9.57
2018-04-14T05:45:41.531Z,8.23
2018-04-14T05:48:10.580Z,7.97
2018-04-14T05:50:38.650Z,7.10
2018-04-14T05:53:06.321Z,8.10
2018-04-14T05:55:33.974Z,7.60
2018-04-14T05:58:01.597Z,7.47
2018-04-14T06:00:30.013Z,6.40
2018-04-14T06:02:57.682Z,7.40
2018-04-14T06:05:25.325Z,6.43
2018-04-14T06:07:52.985Z,6.30
2018-04-14T06:10:20.633Z,7.23
2018-04-14T06:12:48.255Z,6.23
2018-04-14T06:15:15.943Z,6.87
2018-04-14T06:17:44.398Z,5.80
2018-04-14T06:20:12.037Z,5.17
2018-04-14T06:22:39.694Z,5.20
2018-04-14T06:25:07.375Z,4.70
2018-04-14T06:27:35.005Z,4.70
2018-04-14T06:30:02.683Z,4.77
2018-04-14T06:32:30.500Z,4.70
2018-04-14T06:34:58.128Z,5.57
2018-04-14T06:37:25.794Z,4.57
2018-04-14T06:39:54.236Z,4.43
2018-04-14T06:42:21.931Z,3.80
2018-04-14T06:44:49.708Z,4.00
2018-04-14T06:47:18.186Z,4.20
2018-04-14T06:49:46.592Z,3.90
2018-04-14T06:52:14.278Z,3.47
2018-04-14T06:54:41.945Z,3.47
2018-04-14T06:57:09.590Z,3.67
2018-04-14T06:59:37.229Z,4.57
2018-04-14T07:02:04.932Z,3.90
2018-04-14T07:04:32.664Z,3.27
2018-04-14T07:07:01.033Z,4.20
2018-04-14T07:09:28.671Z,4.20
2018-04-14T07:11:56.352Z,4.00
2018-04-14T07:14:24.066Z,4.37
2018-04-14T07:16:51.751Z,4.13
2018-04-14T07:19:20.152Z,3.47
2018-04-14T07:21:47.812Z,4.47
2018-04-14T07:24:16.094Z,4.40
2018-04-14T07:26:43.814Z,4.43
2018-04-14T07:29:12.289Z,4.00
2018-04-14T07:31:40.783Z,4.83
2018-04-14T07:34:09.198Z,4.73
2018-04-14T07:36:46.217Z,3.77
2018-04-14T07:39:13.895Z,4.57
2018-04-14T07:41:41.554Z,5.43
2018-04-14T07:44:09.987Z,5.60
2018-04-14T07:46:37.786Z,5.27
2018-04-14T07:49:05.414Z,5.30
2018-04-14T07:51:33.075Z,5.93
2018-04-14T07:56:34.710Z,5.80
2018-04-14T07:59:02.400Z,5.50
2018-04-14T08:01:30.035Z,4.33
2018-04-14T08:03:57.702Z,7.07
2018-04-14T08:06:25.383Z,4.87
2018-04-14T08:08:53.014Z,4.73
2018-04-14T08:11:20.846Z,4.77
2018-04-14T08:13:51.879Z,5.50
2018-04-14T08:16:23.194Z,4.80
2018-04-14T08:18:51.001Z,4.43
2018-04-14T08:21:18.776Z,5.40
2018-04-14T08:23:52.353Z,4.30
2018-04-14T08:26:23.410Z,10.67
2018-04-14T08:28:55.955Z,5.70
2018-04-14T08:31:28.336Z,4.53
2018-04-14T08:33:57.104Z,7.40
2018-04-14T08:36:24.835Z,4.13
2018-04-14T08:38:52.471Z,11.90
2018-04-14T08:41:20.129Z,5.40
2018-04-14T08:43:47.802Z,4.13
2018-04-14T08:46:15.466Z,4.27
2018-04-14T08:48:43.127Z,4.37
2018-04-14T08:51:10.804Z,3.50
2018-04-14T08:53:38.426Z,4.10
2018-04-14T08:56:06.873Z,4.57
2018-04-14T08:58:34.530Z,3.73
2018-04-14T09:01:02.173Z,4.17
2018-04-14T09:03:29.814Z,4.87
2018-04-14T09:05:57.515Z,4.40
2018-04-14T09:08:25.151Z,3.40
2018-04-14T09:10:52.811Z,3.57
2018-04-14T09:13:20.462Z,4.80
2018-04-14T09:15:51.890Z,4.60
2018-04-14T09:18:19.564Z,3.67
2018-04-14T09:20:47.206Z,4.30
2018-04-14T09:23:14.874Z,2.90
2018-04-14T09:25:42.586Z,3.40
2018-04-14T09:28:10.248Z,3.90
2018-04-14T09:30:37.910Z,3.47
2018-04-14T09:33:05.591Z,21.97
2018-04-14T09:35:34.035Z,20.53
2018-04-14T09:38:01.713Z,3.60
2018-04-14T09:40:29.397Z,5.37
2018-04-14T09:42:57.027Z,3.90
2018-04-14T09:45:24.762Z,3.67
2018-04-14T09:47:52.387Z,3.50
2018-04-14T09:50:20.043Z,4.37
2018-04-14T09:52:47.711Z,3.77
2018-04-14T09:55:15.374Z,3.70
2018-04-14T09:57:43.031Z,4.03
2018-04-14T10:00:10.751Z,4.40
2018-04-14T10:02:43.995Z,3.43
2018-04-14T10:05:11.716Z,3.40
2018-04-14T10:07:40.154Z,3.23
2018-04-14T10:10:07.785Z,74.77
2018-04-14T10:12:35.453Z,3.30
2018-04-14T10:15:03.136Z,43.77
2018-04-14T10:17:30.870Z,3.60
2018-04-14T10:19:58.543Z,3.60
2018-04-14T10:22:26.198Z,3.63
2018-04-14T10:24:53.864Z,2.73
2018-04-14T10:27:21.615Z,2.27
2018-04-14T10:29:49.282Z,1.33
2018-04-14T10:32:16.970Z,1.60
2018-04-14T10:34:44.710Z,2.43
2018-04-14T10:37:12.406Z,2.20
2018-04-14T10:39:40.028Z,2.40
2018-04-14T10:42:07.697Z,2.97
2018-04-14T10:44:35.493Z,2.50
2018-04-14T10:47:03.147Z,2.80
2018-04-14T10:49:30.813Z,2.70
2018-04-14T10:51:58.462Z,2.83
2018-04-14T10:54:26.084Z,2.70
2018-04-14T10:56:53.785Z,3.30
2018-04-14T10:59:21.438Z,3.60
2018-04-14T11:01:49.166Z,3.60
2018-04-14T11:04:16.862Z,2.87
2018-04-14T11:06:45.277Z,2.90
2018-04-14T11:09:13.702Z,3.23
2018-04-14T11:11:41.376Z,3.50
2018-04-14T11:14:09.889Z,3.73
2018-04-14T11:16:38.295Z,4.33
2018-04-14T11:19:05.949Z,4.07
2018-04-14T11:21:33.713Z,3.80
2018-04-14T11:24:02.079Z,4.10
2018-04-14T11:26:29.779Z,3.47
2018-04-14T11:28:57.431Z,4.10
2018-04-14T11:31:25.113Z,3.73
2018-04-14T11:33:52.757Z,3.73
2018-04-14T11:36:20.426Z,3.40
2018-04-14T11:38:48.069Z,3.80
2018-04-14T11:41:15.761Z,3.33
2018-04-14T11:43:43.425Z,3.67
2018-04-14T11:46:11.065Z,3.20
2018-04-14T11:48:38.779Z,2.50
2018-04-14T11:51:07.197Z,2.20
2018-04-14T11:53:34.888Z,2.07
2018-04-14T11:56:02.577Z,2.40
2018-04-14T11:58:30.991Z,2.10
2018-04-14T12:00:58.620Z,2.10
2018-04-14T12:03:27.063Z,1.87
2018-04-14T12:05:54.739Z,1.50
2018-04-14T12:08:22.372Z,1.20
2018-04-14T12:10:50.042Z,1.73
2018-04-14T12:13:17.713Z,1.27
2018-04-14T12:15:45.359Z,1.80
2018-04-14T12:18:13.032Z,1.43
2018-04-14T12:20:40.705Z,1.60
2018-04-14T12:23:09.125Z,1.60
2018-04-14T12:25:36.806Z,1.20
2018-04-14T12:28:04.487Z,1.57
2018-04-14T12:30:32.143Z,2.10
2018-04-14T12:32:59.786Z,1.93
2018-04-14T12:35:27.461Z,1.80
2018-04-14T12:37:59.575Z,1.63
2018-04-14T12:40:27.261Z,2.10
2018-04-14T12:42:54.906Z,1.93
2018-04-14T12:45:22.607Z,1.60
2018-04-14T12:47:50.282Z,2.33
2018-04-14T12:50:17.899Z,2.33
2018-04-14T12:52:45.550Z,2.53
2018-04-14T12:55:13.322Z,2.30
2018-04-14T12:57:41.032Z,3.20
2018-04-14T13:00:10.618Z,2.97
2018-04-14T13:02:38.489Z,3.43
2018-04-14T13:05:06.332Z,3.67
2018-04-14T13:07:34.917Z,3.07
2018-04-14T13:10:02.754Z,2.23
2018-04-14T13:12:30.603Z,2.10
2018-04-14T13:14:58.453Z,2.40
2018-04-14T13:17:26.992Z,2.30
2018-04-14T13:19:55.489Z,2.47
2018-04-14T13:22:23.322Z,2.00
2018-04-14T13:24:51.111Z,2.30
2018-04-14T13:27:18.758Z,1.60
2018-04-14T13:29:46.441Z,1.73
2018-04-14T13:32:14.111Z,1.60
2018-04-14T13:34:42.555Z,1.20
2018-04-14T13:37:10.272Z,1.57
2018-04-14T13:39:38.084Z,1.47
2018-04-14T13:42:07.080Z,1.33
2018-04-14T13:44:34.863Z,0.97
2018-04-14T13:47:03.643Z,1.20
2018-04-14T13:49:32.302Z,1.10
2018-04-14T13:52:00.192Z,1.17
2018-04-14T13:54:28.764Z,1.20
2018-04-14T13:56:56.512Z,0.90
2018-04-14T13:59:24.369Z,1.10
2018-04-14T14:01:52.238Z,1.00
2018-04-14T14:04:20.023Z,1.40
2018-04-14T14:06:48.077Z,1.50
2018-04-14T14:09:15.934Z,1.00
2018-04-14T14:11:43.795Z,1.37
2018-04-14T14:14:11.739Z,1.40
2018-04-14T14:16:39.649Z,1.30
2018-04-14T14:19:08.306Z,1.17
2018-04-14T14:21:36.124Z,1.23
2018-04-14T14:24:04.019Z,1.33
2018-04-14T14:26:31.860Z,1.27
2018-04-14T14:28:59.796Z,1.07
2018-04-14T14:31:28.439Z,1.30
2018-04-14T14:33:56.238Z,0.90
2018-04-14T14:36:24.035Z,1.57
2018-04-14T14:38:51.992Z,1.47
2018-04-14T14:41:19.827Z,1.57
2018-04-14T14:43:48.483Z,1.37
2018-04-14T14:46:16.310Z,1.40
2018-04-14T14:48:44.065Z,2.10
2018-04-14T14:54:24.374Z,1.67
2018-04-14T14:56:52.036Z,1.90
2018-04-14T14:59:20.602Z,1.80
2018-04-14T15:01:48.294Z,1.57
2018-04-14T15:04:15.970Z,2.17
2018-04-14T15:06:43.655Z,1.67
2018-04-14T15:09:12.057Z,2.33
2018-04-14T15:11:39.703Z,2.00
2018-04-14T15:14:08.139Z,2.20
2018-04-14T15:16:35.764Z,2.50
2018-04-14T15:19:03.442Z,4.07
2018-04-14T15:21:31.111Z,3.10
2018-04-14T15:23:58.775Z,2.60
2018-04-14T15:26:26.468Z,2.83
2018-04-14T15:28:55.565Z,2.60
2018-04-14T15:31:25.221Z,2.90
2018-04-14T15:33:53.731Z,2.70
2018-04-14T15:36:21.390Z,2.87
2018-04-14T15:38:49.010Z,3.10
2018-04-14T15:41:16.677Z,3.00
2018-04-14T15:43:44.362Z,3.10
2018-04-14T15:46:11.991Z,3.57
2018-04-14T15:48:39.668Z,3.60
2018-04-14T15:51:08.743Z,3.80
2018-04-14T15:53:36.419Z,3.43
2018-04-14T15:56:04.157Z,3.13
2018-04-14T15:58:31.835Z,4.37
2018-04-14T16:00:59.472Z,4.17
2018-04-14T16:03:28.275Z,4.30
2018-04-14T16:05:56.759Z,4.30
2018-04-14T16:08:26.890Z,4.70
2018-04-14T16:10:54.574Z,4.07
2018-04-14T16:13:22.609Z,4.40
2018-04-14T16:15:50.264Z,4.30
2018-04-14T16:21:00.232Z,4.03
2018-04-14T16:23:36.061Z,3.93
2018-04-14T16:26:08.421Z,3.87
2018-04-14T16:31:24.404Z,3.90
2018-04-14T16:34:01.465Z,3.53
2018-04-14T16:37:22.312Z,3.80
2018-04-14T16:39:55.614Z,3.73
2018-04-14T16:42:41.914Z,3.60
2018-04-14T16:45:09.709Z,4.10
2018-04-14T16:47:37.382Z,4.70
2018-04-14T16:50:05.063Z,3.57
2018-04-14T16:52:33.530Z,3.27
2018-04-14T16:55:01.235Z,3.30
2018-04-14T16:57:28.903Z,3.30
2018-04-14T16:59:56.588Z,3.80
2018-04-14T17:02:24.249Z,3.50
2018-04-14T17:04:51.899Z,4.10
2018-04-14T17:07:19.573Z,3.60
2018-04-14T17:09:47.277Z,2.90
2018-04-14T17:12:15.698Z,4.10
2018-04-14T17:14:43.350Z,3.80
2018-04-14T17:17:11.001Z,5.40
2018-04-14T17:19:38.636Z,4.80
2018-04-14T17:22:07.077Z,3.90
2018-04-14T17:24:34.738Z,3.83
2018-04-14T17:27:02.631Z,4.50
2018-04-14T17:29:30.580Z,4.27
2018-04-14T17:31:59.389Z,3.73
2018-04-14T17:34:27.702Z,4.43
2018-04-14T17:36:55.914Z,4.90
2018-04-14T17:39:23.935Z,4.60
2018-04-14T17:41:51.609Z,6.20
2018-04-14T17:44:19.756Z,4.80
2018-04-14T17:46:47.410Z,4.57
2018-04-14T17:49:15.056Z,4.90
2018-04-14T17:51:43.638Z,4.90
2018-04-14T17:54:11.421Z,4.70
2018-04-14T17:56:39.170Z,6.73
2018-04-14T17:59:07.689Z,5.60
2018-04-14T18:01:35.441Z,4.60
2018-04-14T18:04:03.151Z,4.53
2018-04-14T18:06:30.837Z,5.50
2018-04-14T18:08:59.658Z,4.60
2018-04-14T18:11:27.475Z,6.10
2018-04-14T18:13:55.199Z,5.83
2018-04-14T18:16:22.901Z,4.83
2018-04-14T18:18:50.825Z,5.67
2018-04-14T18:21:18.721Z,6.40
2018-04-14T18:23:46.756Z,4.80
2018-04-14T18:26:14.727Z,5.10
2018-04-14T18:28:42.647Z,5.43
2018-04-14T18:31:11.001Z,5.50
2018-04-14T18:33:38.770Z,5.80
2018-04-14T18:36:07.306Z,7.27
2018-04-14T18:38:35.140Z,5.80
2018-04-14T18:41:02.929Z,5.07
2018-04-14T18:43:31.776Z,5.67
2018-04-14T18:45:59.683Z,5.77
2018-04-14T18:48:27.397Z,5.83
2018-04-14T18:50:55.261Z,4.97
2018-04-14T18:53:23.326Z,6.30
2018-04-14T18:55:51.264Z,5.50
2018-04-14T18:58:19.092Z,5.67
2018-04-14T19:00:46.843Z,6.47
2018-04-14T19:03:14.545Z,5.50
2018-04-14T19:05:42.274Z,5.80
2018-04-14T19:08:10.039Z,5.67
2018-04-14T19:10:37.917Z,5.77
2018-04-14T19:13:05.868Z,6.20
2018-04-14T19:15:33.810Z,7.10
2018-04-14T19:18:02.493Z,5.33
2018-04-14T19:20:31.249Z,5.33
2018-04-14T19:22:59.114Z,5.20
2018-04-14T19:25:26.996Z,5.63
2018-04-14T19:27:54.880Z,5.60
2018-04-14T19:30:22.622Z,5.53
2018-04-14T19:32:50.329Z,5.00
2018-04-14T19:35:18.127Z,5.13
2018-04-14T19:37:46.038Z,4.63
2018-04-14T19:40:14.582Z,4.40
2018-04-14T19:42:42.503Z,5.77
2018-04-14T19:45:10.630Z,4.37
2018-04-14T19:47:38.569Z,4.80
2018-04-14T19:50:06.549Z,5.23
2018-04-14T19:52:34.271Z,5.33
2018-04-14T19:55:06.542Z,5.50
2018-04-14T19:57:34.167Z,5.40
2018-04-14T20:00:01.873Z,4.90
2018-04-14T20:02:29.595Z,5.10
2018-04-14T20:04:58.160Z,5.20
2018-04-14T20:07:26.351Z,5.23
2018-04-14T20:09:54.869Z,6.00
2018-04-14T20:12:22.817Z,5.43
2018-04-14T20:14:50.731Z,5.80
2018-04-14T20:17:18.655Z,5.60
2018-04-14T20:19:46.657Z,5.60
2018-04-14T20:22:17.739Z,5.77
2018-04-14T20:24:45.530Z,5.80
2018-04-14T20:27:13.412Z,6.00
2018-04-14T20:29:41.179Z,6.60
2018-04-14T20:32:13.178Z,8.10
2018-04-14T20:35:06.363Z,5.87
2018-04-14T20:51:16.831Z,7.10
2018-04-14T20:53:54.057Z,6.90
2018-04-14T20:56:25.339Z,6.50
2018-04-14T20:59:16.662Z,6.80
